AMX395 MMBT-MMMX
Flight info
| Callsign | AMX395 |
|---|---|
| Flight time | 0h 53m |
| Altitude | 38000 |
| Route | HUX3C HUX UT158 KODEK UT157 LARLO LARLO4A |
| Aircraft | B38M/M-SDE1FGHILORVWXY/HB1 |
Departure
| Time | 2026-04-20 01:27 |
|---|---|
| Airport | Bahías de Huatulco International Airport (MMBT) |
Arrival
| Time | 2026-04-20 02:20 |
|---|---|
| Airport | Mexico City Benito Juárez International Airport (MMMX) |
| Time | Latitude | Longitude | Altitude | Speed | Heading |
|---|---|---|---|---|---|
| 2026-04-20 00:55 | 15.77290 | -96.25855 | 512 ft | 0 kts | 168° |
| 2026-04-20 01:18 | 15.77308 | -96.25860 | 511 ft | 4 kts | 165° |
| 2026-04-20 01:18 | 15.77334 | -96.25868 | 511 ft | 4 kts | 155° |
| 2026-04-20 01:18 | 15.77356 | -96.25883 | 511 ft | 4 kts | 128° |
| 2026-04-20 01:18 | 15.77362 | -96.25901 | 511 ft | 1 kts | 79° |
| 2026-04-20 01:22 | 15.77363 | -96.25896 | 511 ft | 2 kts | 79° |
| 2026-04-20 01:23 | 15.77372 | -96.25878 | 511 ft | 3 kts | 40° |
| 2026-04-20 01:23 | 15.77398 | -96.25876 | 511 ft | 5 kts | 0° |
| 2026-04-20 01:23 | 15.77431 | -96.25857 | 511 ft | 7 kts | 44° |
| 2026-04-20 01:23 | 15.77467 | -96.25816 | 512 ft | 9 kts | 48° |
| 2026-04-20 01:24 | 15.77512 | -96.25763 | 512 ft | 11 kts | 49° |
| 2026-04-20 01:24 | 15.77564 | -96.25702 | 513 ft | 12 kts | 48° |
| 2026-04-20 01:24 | 15.77623 | -96.25635 | 514 ft | 14 kts | 48° |
| 2026-04-20 01:24 | 15.77660 | -96.25533 | 514 ft | 18 kts | 79° |
| 2026-04-20 01:25 | 15.77686 | -96.25390 | 514 ft | 23 kts | 79° |
| 2026-04-20 01:25 | 15.77720 | -96.25201 | 512 ft | 30 kts | 79° |
| 2026-04-20 01:25 | 15.77751 | -96.25035 | 511 ft | 24 kts | 79° |
| 2026-04-20 01:25 | 15.77774 | -96.24915 | 511 ft | 11 kts | 73° |
| 2026-04-20 01:26 | 15.77828 | -96.24851 | 510 ft | 10 kts | 35° |
| 2026-04-20 01:26 | 15.77862 | -96.24798 | 510 ft | 10 kts | 92° |
| 2026-04-20 01:26 | 15.77806 | -96.24772 | 510 ft | 11 kts | 215° |
| 2026-04-20 01:26 | 15.77783 | -96.24856 | 510 ft | 17 kts | 258° |
| 2026-04-20 01:27 | 15.77730 | -96.25139 | 511 ft | 79 kts | 259° |
| 2026-04-20 01:27 | 15.77577 | -96.25986 | 512 ft | 157 kts | 258° |
| 2026-04-20 01:27 | 15.77346 | -96.27171 | 1203 ft | 170 kts | 257° |
| 2026-04-20 01:27 | 15.77125 | -96.28395 | 2185 ft | 177 kts | 258° |
| 2026-04-20 01:28 | 15.76966 | -96.29693 | 3094 ft | 185 kts | 264° |
| 2026-04-20 01:28 | 15.76798 | -96.31064 | 3767 ft | 203 kts | 257° |
| 2026-04-20 01:28 | 15.76304 | -96.32551 | 4167 ft | 234 kts | 249° |
| 2026-04-20 01:28 | 15.75712 | -96.34244 | 4676 ft | 263 kts | 251° |
| 2026-04-20 01:29 | 15.75118 | -96.36121 | 5388 ft | 283 kts | 253° |
| 2026-04-20 01:29 | 15.74516 | -96.38119 | 6231 ft | 295 kts | 250° |
| 2026-04-20 01:29 | 15.73413 | -96.39907 | 7177 ft | 298 kts | 221° |
| 2026-04-20 01:29 | 15.71629 | -96.40984 | 8104 ft | 300 kts | 194° |
| 2026-04-20 01:30 | 15.69590 | -96.41149 | 9093 ft | 295 kts | 167° |
| 2026-04-20 01:30 | 15.67706 | -96.40386 | 10001 ft | 290 kts | 140° |
| 2026-04-20 01:30 | 15.66340 | -96.38857 | 10676 ft | 295 kts | 116° |
| 2026-04-20 01:30 | 15.65713 | -96.36820 | 11250 ft | 303 kts | 92° |
| 2026-04-20 01:31 | 15.66026 | -96.34660 | 11937 ft | 309 kts | 66° |
| 2026-04-20 01:31 | 15.67302 | -96.32879 | 12772 ft | 312 kts | 39° |
| 2026-04-20 01:31 | 15.69195 | -96.31728 | 13547 ft | 320 kts | 31° |
| 2026-04-20 01:31 | 15.71099 | -96.30498 | 14234 ft | 324 kts | 34° |
| 2026-04-20 01:32 | 15.73025 | -96.29237 | 14916 ft | 330 kts | 33° |
| 2026-04-20 01:32 | 15.74989 | -96.27969 | 15579 ft | 335 kts | 31° |
| 2026-04-20 01:32 | 15.77196 | -96.27138 | 16243 ft | 343 kts | 11° |
| 2026-04-20 01:32 | 15.79607 | -96.27126 | 16877 ft | 353 kts | 352° |
| 2026-04-20 01:33 | 15.81977 | -96.27866 | 17513 ft | 359 kts | 342° |
| 2026-04-20 01:33 | 15.84349 | -96.28754 | 18115 ft | 365 kts | 342° |
| 2026-04-20 01:33 | 15.86741 | -96.29667 | 18662 ft | 369 kts | 341° |
| 2026-04-20 01:33 | 15.89153 | -96.30601 | 19232 ft | 371 kts | 341° |
| 2026-04-20 01:34 | 15.91576 | -96.31546 | 19789 ft | 373 kts | 341° |
| 2026-04-20 01:34 | 15.94015 | -96.32500 | 20348 ft | 376 kts | 340° |
| 2026-04-20 01:34 | 15.96472 | -96.33462 | 20881 ft | 379 kts | 340° |
| 2026-04-20 01:34 | 15.98942 | -96.34430 | 21432 ft | 381 kts | 340° |
| 2026-04-20 01:35 | 16.01432 | -96.35406 | 21970 ft | 383 kts | 340° |
| 2026-04-20 01:35 | 16.03938 | -96.36388 | 22505 ft | 386 kts | 340° |
| 2026-04-20 01:35 | 16.06456 | -96.37376 | 23037 ft | 388 kts | 340° |
| 2026-04-20 01:35 | 16.08994 | -96.38372 | 23550 ft | 391 kts | 340° |
| 2026-04-20 01:36 | 16.11545 | -96.39373 | 23979 ft | 393 kts | 340° |
| 2026-04-20 01:36 | 16.14118 | -96.40382 | 24386 ft | 396 kts | 340° |
| 2026-04-20 01:36 | 16.16704 | -96.41398 | 24790 ft | 399 kts | 339° |
| 2026-04-20 01:36 | 16.19311 | -96.42422 | 25179 ft | 402 kts | 339° |
| 2026-04-20 01:37 | 16.21938 | -96.43454 | 25579 ft | 405 kts | 339° |
| 2026-04-20 01:37 | 16.24582 | -96.44493 | 25975 ft | 408 kts | 339° |
| 2026-04-20 01:37 | 16.27252 | -96.45542 | 26363 ft | 411 kts | 339° |
| 2026-04-20 01:37 | 16.29936 | -96.46598 | 26737 ft | 414 kts | 339° |
| 2026-04-20 01:38 | 16.32641 | -96.47662 | 27111 ft | 417 kts | 339° |
| 2026-04-20 01:38 | 16.35367 | -96.48734 | 27482 ft | 420 kts | 339° |
| 2026-04-20 01:38 | 16.38111 | -96.49814 | 27846 ft | 423 kts | 339° |
| 2026-04-20 01:38 | 16.40872 | -96.50901 | 28206 ft | 426 kts | 339° |
| 2026-04-20 01:39 | 16.43656 | -96.51998 | 28561 ft | 429 kts | 339° |
| 2026-04-20 01:39 | 16.46455 | -96.53100 | 28920 ft | 432 kts | 339° |
| 2026-04-20 01:39 | 16.49274 | -96.54211 | 29284 ft | 434 kts | 339° |
| 2026-04-20 01:39 | 16.52110 | -96.55328 | 29634 ft | 437 kts | 339° |
| 2026-04-20 01:40 | 16.54966 | -96.56455 | 29963 ft | 440 kts | 339° |
| 2026-04-20 01:40 | 16.57835 | -96.57586 | 30285 ft | 442 kts | 339° |
| 2026-04-20 01:40 | 16.60720 | -96.58722 | 30599 ft | 444 kts | 339° |
| 2026-04-20 01:40 | 16.63616 | -96.59864 | 30906 ft | 446 kts | 339° |
| 2026-04-20 01:41 | 16.66526 | -96.61011 | 31216 ft | 448 kts | 339° |
| 2026-04-20 01:41 | 16.69450 | -96.62164 | 31534 ft | 450 kts | 339° |
| 2026-04-20 01:41 | 16.72389 | -96.63323 | 31852 ft | 453 kts | 339° |
| 2026-04-20 01:41 | 16.75298 | -96.64471 | 32173 ft | 455 kts | 339° |
| 2026-04-20 01:42 | 16.78268 | -96.65644 | 32485 ft | 457 kts | 338° |
| 2026-04-20 01:42 | 16.81250 | -96.66821 | 32790 ft | 459 kts | 338° |
| 2026-04-20 01:42 | 16.84235 | -96.68000 | 33178 ft | 459 kts | 338° |
| 2026-04-20 01:42 | 16.87217 | -96.69179 | 33608 ft | 458 kts | 338° |
| 2026-04-20 01:43 | 16.90191 | -96.70354 | 34045 ft | 457 kts | 338° |
| 2026-04-20 01:43 | 16.93165 | -96.71530 | 34253 ft | 457 kts | 338° |
| 2026-04-20 01:43 | 16.98825 | -96.74355 | 34250 ft | 447 kts | 322° |
| 2026-04-20 01:44 | 17.03933 | -96.78098 | 34250 ft | 448 kts | 324° |
| 2026-04-20 01:44 | 17.09022 | -96.81840 | 34215 ft | 446 kts | 324° |
| 2026-04-20 01:45 | 17.14089 | -96.85583 | 34166 ft | 446 kts | 324° |
| 2026-04-20 01:45 | 17.19142 | -96.89317 | 34113 ft | 444 kts | 323° |
| 2026-04-20 01:46 | 17.24190 | -96.93051 | 34069 ft | 444 kts | 323° |
| 2026-04-20 01:46 | 17.29223 | -96.96777 | 34030 ft | 443 kts | 323° |
| 2026-04-20 01:47 | 17.34249 | -97.00500 | 34035 ft | 442 kts | 323° |
| 2026-04-20 01:47 | 17.39268 | -97.04221 | 34040 ft | 442 kts | 323° |
| 2026-04-20 01:48 | 17.44286 | -97.07942 | 34047 ft | 441 kts | 322° |
| 2026-04-20 01:48 | 17.49292 | -97.11659 | 34049 ft | 441 kts | 322° |
| 2026-04-20 01:49 | 17.54296 | -97.15376 | 34051 ft | 441 kts | 322° |
| 2026-04-20 01:49 | 17.59288 | -97.19101 | 34044 ft | 440 kts | 319° |
| 2026-04-20 01:50 | 17.63739 | -97.23447 | 34043 ft | 438 kts | 314° |
| 2026-04-20 01:50 | 17.68132 | -97.27865 | 34039 ft | 438 kts | 314° |
| 2026-04-20 01:51 | 17.72519 | -97.32292 | 34033 ft | 438 kts | 314° |
| 2026-04-20 01:51 | 17.76903 | -97.36718 | 34024 ft | 437 kts | 313° |
| 2026-04-20 01:52 | 17.81281 | -97.41142 | 34018 ft | 437 kts | 313° |
| 2026-04-20 01:52 | 17.85659 | -97.45569 | 34004 ft | 437 kts | 313° |
| 2026-04-20 01:53 | 17.90028 | -97.49989 | 33996 ft | 436 kts | 313° |
| 2026-04-20 01:53 | 17.94394 | -97.54412 | 33981 ft | 436 kts | 313° |
| 2026-04-20 01:54 | 17.98752 | -97.58826 | 33958 ft | 435 kts | 313° |
| 2026-04-20 01:54 | 18.03094 | -97.63230 | 33950 ft | 434 kts | 313° |
| 2026-04-20 01:55 | 18.07427 | -97.67625 | 33935 ft | 432 kts | 313° |
| 2026-04-20 01:55 | 18.11712 | -97.71979 | 33919 ft | 431 kts | 313° |
| 2026-04-20 01:56 | 18.16009 | -97.76346 | 33906 ft | 429 kts | 313° |
| 2026-04-20 01:56 | 18.20298 | -97.80708 | 33894 ft | 428 kts | 313° |
| 2026-04-20 01:57 | 18.24572 | -97.85058 | 33881 ft | 427 kts | 313° |
| 2026-04-20 01:57 | 18.28841 | -97.89405 | 33868 ft | 426 kts | 313° |
| 2026-04-20 01:58 | 18.33091 | -97.93735 | 33856 ft | 419 kts | 313° |
| 2026-04-20 01:58 | 18.35144 | -97.95828 | 33833 ft | 404 kts | 313° |
| 2026-04-20 01:58 | 18.37139 | -97.97863 | 33481 ft | 397 kts | 312° |
| 2026-04-20 01:59 | 18.39120 | -97.99884 | 32948 ft | 396 kts | 313° |
| 2026-04-20 01:59 | 18.41098 | -98.01903 | 32438 ft | 395 kts | 313° |
| 2026-04-20 01:59 | 18.43063 | -98.03910 | 31967 ft | 393 kts | 312° |
| 2026-04-20 01:59 | 18.45020 | -98.05908 | 31499 ft | 391 kts | 312° |
| 2026-04-20 02:00 | 18.46966 | -98.07897 | 31055 ft | 389 kts | 312° |
| 2026-04-20 02:00 | 18.48903 | -98.09877 | 30601 ft | 387 kts | 312° |
| 2026-04-20 02:00 | 18.50836 | -98.11852 | 30166 ft | 386 kts | 313° |
| 2026-04-20 02:00 | 18.52760 | -98.13820 | 29679 ft | 385 kts | 313° |
| 2026-04-20 02:01 | 18.54679 | -98.15783 | 29186 ft | 384 kts | 313° |
| 2026-04-20 02:01 | 18.56588 | -98.17736 | 28744 ft | 381 kts | 313° |
| 2026-04-20 02:01 | 18.58481 | -98.19676 | 28347 ft | 378 kts | 313° |
| 2026-04-20 02:01 | 18.60358 | -98.21597 | 28152 ft | 375 kts | 313° |
| 2026-04-20 02:02 | 18.62225 | -98.23508 | 27533 ft | 372 kts | 313° |
| 2026-04-20 02:02 | 18.64074 | -98.25403 | 27129 ft | 370 kts | 313° |
| 2026-04-20 02:02 | 18.65913 | -98.27288 | 26729 ft | 368 kts | 312° |
| 2026-04-20 02:02 | 18.67744 | -98.29165 | 26339 ft | 366 kts | 313° |
| 2026-04-20 02:03 | 18.69562 | -98.31030 | 25965 ft | 364 kts | 313° |
| 2026-04-20 02:03 | 18.71161 | -98.33083 | 25418 ft | 362 kts | 296° |
| 2026-04-20 02:03 | 18.72002 | -98.35560 | 24988 ft | 359 kts | 280° |
| 2026-04-20 02:03 | 18.72519 | -98.38130 | 24587 ft | 358 kts | 281° |
| 2026-04-20 02:04 | 18.73028 | -98.40706 | 24135 ft | 359 kts | 281° |
| 2026-04-20 02:04 | 18.73524 | -98.43296 | 23680 ft | 361 kts | 281° |
| 2026-04-20 02:04 | 18.74011 | -98.45901 | 23177 ft | 363 kts | 281° |
| 2026-04-20 02:04 | 18.74331 | -98.47635 | 22817 ft | 364 kts | 280° |
| 2026-04-20 02:05 | 18.74814 | -98.50266 | 22325 ft | 365 kts | 280° |
| 2026-04-20 02:05 | 18.75294 | -98.52889 | 21867 ft | 364 kts | 280° |
| 2026-04-20 02:05 | 18.75772 | -98.55514 | 21404 ft | 364 kts | 280° |
| 2026-04-20 02:05 | 18.76252 | -98.58143 | 20894 ft | 366 kts | 280° |
| 2026-04-20 02:06 | 18.76727 | -98.60751 | 20765 ft | 356 kts | 280° |
| 2026-04-20 02:06 | 18.77195 | -98.63326 | 20150 ft | 361 kts | 281° |
| 2026-04-20 02:06 | 18.77674 | -98.65957 | 19460 ft | 369 kts | 281° |
| 2026-04-20 02:06 | 18.78159 | -98.68628 | 18789 ft | 370 kts | 281° |
| 2026-04-20 02:07 | 18.78641 | -98.71283 | 18151 ft | 366 kts | 281° |
| 2026-04-20 02:07 | 18.79115 | -98.73901 | 17563 ft | 359 kts | 281° |
| 2026-04-20 02:07 | 18.79578 | -98.76453 | 17132 ft | 348 kts | 281° |
| 2026-04-20 02:07 | 18.80081 | -98.78897 | 16875 ft | 332 kts | 289° |
| 2026-04-20 02:08 | 18.81168 | -98.80956 | 16703 ft | 317 kts | 311° |
| 2026-04-20 02:08 | 18.82870 | -98.82418 | 16557 ft | 317 kts | 330° |
| 2026-04-20 02:08 | 18.84810 | -98.83533 | 16360 ft | 318 kts | 331° |
| 2026-04-20 02:08 | 18.86770 | -98.84629 | 16020 ft | 318 kts | 332° |
| 2026-04-20 02:09 | 18.88721 | -98.85696 | 15785 ft | 313 kts | 332° |
| 2026-04-20 02:09 | 18.90653 | -98.86740 | 15612 ft | 313 kts | 332° |
| 2026-04-20 02:09 | 18.92593 | -98.87779 | 15450 ft | 313 kts | 332° |
| 2026-04-20 02:09 | 18.94535 | -98.88815 | 15299 ft | 312 kts | 332° |
| 2026-04-20 02:10 | 18.96473 | -98.89846 | 15160 ft | 312 kts | 332° |
| 2026-04-20 02:10 | 18.98384 | -98.90863 | 15015 ft | 311 kts | 332° |
| 2026-04-20 02:10 | 19.00339 | -98.91902 | 14867 ft | 310 kts | 332° |
| 2026-04-20 02:10 | 19.02241 | -98.92913 | 14729 ft | 310 kts | 332° |
| 2026-04-20 02:11 | 19.04166 | -98.93937 | 14586 ft | 310 kts | 332° |
| 2026-04-20 02:11 | 19.06087 | -98.94959 | 14442 ft | 307 kts | 332° |
| 2026-04-20 02:11 | 19.07972 | -98.95962 | 14310 ft | 299 kts | 332° |
| 2026-04-20 02:11 | 19.09804 | -98.96937 | 14181 ft | 291 kts | 332° |
| 2026-04-20 02:12 | 19.11589 | -98.97887 | 14072 ft | 282 kts | 332° |
| 2026-04-20 02:12 | 19.13315 | -98.98806 | 13963 ft | 274 kts | 332° |
| 2026-04-20 02:12 | 19.14990 | -98.99698 | 13875 ft | 268 kts | 332° |
| 2026-04-20 02:12 | 19.16656 | -99.00586 | 13777 ft | 268 kts | 332° |
| 2026-04-20 02:13 | 19.18242 | -99.01614 | 13569 ft | 268 kts | 317° |
| 2026-04-20 02:13 | 19.19591 | -99.02957 | 13335 ft | 263 kts | 315° |
| 2026-04-20 02:13 | 19.20893 | -99.04264 | 13090 ft | 254 kts | 315° |
| 2026-04-20 02:13 | 19.22110 | -99.05479 | 12822 ft | 249 kts | 315° |
| 2026-04-20 02:14 | 19.23302 | -99.06667 | 12562 ft | 243 kts | 315° |
| 2026-04-20 02:14 | 19.24485 | -99.07911 | 12311 ft | 236 kts | 308° |
| 2026-04-20 02:14 | 19.25459 | -99.09279 | 12042 ft | 230 kts | 305° |
| 2026-04-20 02:14 | 19.26286 | -99.10458 | 11812 ft | 212 kts | 306° |
| 2026-04-20 02:15 | 19.27137 | -99.11651 | 11576 ft | 198 kts | 306° |
| 2026-04-20 02:15 | 19.27966 | -99.12804 | 11375 ft | 196 kts | 307° |
| 2026-04-20 02:15 | 19.28795 | -99.13949 | 11174 ft | 195 kts | 307° |
| 2026-04-20 02:15 | 19.29619 | -99.15082 | 10980 ft | 194 kts | 307° |
| 2026-04-20 02:16 | 19.30440 | -99.16206 | 10768 ft | 192 kts | 308° |
| 2026-04-20 02:16 | 19.31254 | -99.17319 | 10552 ft | 190 kts | 308° |
| 2026-04-20 02:16 | 19.32123 | -99.18361 | 10330 ft | 187 kts | 319° |
| 2026-04-20 02:16 | 19.33167 | -99.19092 | 10119 ft | 176 kts | 338° |
| 2026-04-20 02:17 | 19.34329 | -99.19381 | 9877 ft | 170 kts | 356° |
| 2026-04-20 02:17 | 19.35504 | -99.19269 | 9705 ft | 170 kts | 13° |
| 2026-04-20 02:17 | 19.36586 | -99.18775 | 9542 ft | 171 kts | 32° |
| 2026-04-20 02:17 | 19.37470 | -99.17938 | 9447 ft | 171 kts | 49° |
| 2026-04-20 02:18 | 19.38118 | -99.16882 | 9352 ft | 171 kts | 60° |
| 2026-04-20 02:18 | 19.38677 | -99.15779 | 9241 ft | 169 kts | 59° |
| 2026-04-20 02:18 | 19.39263 | -99.14726 | 9113 ft | 164 kts | 58° |
| 2026-04-20 02:18 | 19.39849 | -99.13684 | 8905 ft | 164 kts | 58° |
| 2026-04-20 02:19 | 19.40432 | -99.12641 | 8650 ft | 166 kts | 58° |
| 2026-04-20 02:19 | 19.41016 | -99.11596 | 8275 ft | 163 kts | 58° |
| 2026-04-20 02:19 | 19.41591 | -99.10567 | 7976 ft | 161 kts | 57° |
| 2026-04-20 02:19 | 19.42167 | -99.09544 | 7637 ft | 163 kts | 57° |
| 2026-04-20 02:20 | 19.42733 | -99.08522 | 7396 ft | 159 kts | 57° |
| 2026-04-20 02:20 | 19.43273 | -99.07559 | 7315 ft | 138 kts | 57° |
| 2026-04-20 02:20 | 19.43690 | -99.06822 | 7305 ft | 91 kts | 59° |
| 2026-04-20 02:20 | 19.43922 | -99.06404 | 7305 ft | 43 kts | 59° |
| 2026-04-20 02:21 | 19.43964 | -99.06087 | 7305 ft | 17 kts | 116° |
| 2026-04-20 02:21 | 19.43906 | -99.06094 | 7305 ft | 9 kts | 232° |
| 2026-04-20 02:21 | 19.43871 | -99.06156 | 7305 ft | 10 kts | 239° |
| 2026-04-20 02:22 | 19.43834 | -99.06222 | 7305 ft | 11 kts | 239° |
| 2026-04-20 02:22 | 19.43794 | -99.06293 | 7305 ft | 12 kts | 239° |
| 2026-04-20 02:22 | 19.43751 | -99.06369 | 7305 ft | 12 kts | 239° |
| 2026-04-20 02:22 | 19.43707 | -99.06450 | 7305 ft | 13 kts | 239° |
| 2026-04-20 02:23 | 19.43660 | -99.06534 | 7305 ft | 14 kts | 239° |
| 2026-04-20 02:23 | 19.43611 | -99.06623 | 7305 ft | 14 kts | 239° |
| 2026-04-20 02:23 | 19.43546 | -99.06704 | 7305 ft | 15 kts | 212° |
| 2026-04-20 02:23 | 19.43453 | -99.06756 | 7305 ft | 15 kts | 210° |
| 2026-04-20 02:24 | 19.43406 | -99.06853 | 7305 ft | 15 kts | 249° |
| 2026-04-20 02:24 | 19.43350 | -99.06954 | 7305 ft | 16 kts | 239° |
| 2026-04-20 02:24 | 19.43297 | -99.07049 | 7305 ft | 14 kts | 239° |
| 2026-04-20 02:24 | 19.43264 | -99.07136 | 7305 ft | 11 kts | 265° |
| 2026-04-20 02:25 | 19.43257 | -99.07210 | 7305 ft | 9 kts | 261° |
| 2026-04-20 02:25 | 19.43240 | -99.07272 | 7305 ft | 9 kts | 245° |
| 2026-04-20 02:25 | 19.43203 | -99.07339 | 7305 ft | 12 kts | 239° |
| 2026-04-20 02:25 | 19.43159 | -99.07417 | 7305 ft | 13 kts | 238° |
| 2026-04-20 02:26 | 19.43112 | -99.07500 | 7305 ft | 14 kts | 239° |
| 2026-04-20 02:26 | 19.43060 | -99.07591 | 7305 ft | 15 kts | 238° |
| 2026-04-20 02:26 | 19.43007 | -99.07684 | 7305 ft | 14 kts | 238° |
| 2026-04-20 02:26 | 19.42948 | -99.07767 | 7305 ft | 14 kts | 226° |
| 2026-04-20 02:27 | 19.42874 | -99.07829 | 7305 ft | 13 kts | 209° |
| 2026-04-20 02:27 | 19.42800 | -99.07871 | 7305 ft | 11 kts | 206° |
| 2026-04-20 02:27 | 19.42733 | -99.07869 | 7305 ft | 9 kts | 152° |
| 2026-04-20 02:27 | 19.42677 | -99.07833 | 7305 ft | 10 kts | 149° |
| 2026-04-20 02:28 | 19.42617 | -99.07819 | 7305 ft | 9 kts | 219° |
| 2026-04-20 02:28 | 19.42584 | -99.07876 | 7305 ft | 9 kts | 239° |
| 2026-04-20 02:28 | 19.42552 | -99.07934 | 7305 ft | 9 kts | 240° |
| 2026-04-20 02:28 | 19.42519 | -99.07992 | 7305 ft | 10 kts | 239° |
| 2026-04-20 02:29 | 19.42484 | -99.08055 | 7305 ft | 10 kts | 239° |
| 2026-04-20 02:29 | 19.42449 | -99.08119 | 7305 ft | 10 kts | 239° |
| 2026-04-20 02:29 | 19.42414 | -99.08179 | 7305 ft | 8 kts | 234° |
| 2026-04-20 02:29 | 19.42374 | -99.08199 | 7305 ft | 5 kts | 182° |
| 2026-04-20 02:30 | 19.42344 | -99.08200 | 7305 ft | 4 kts | 181° |
| 2026-04-20 02:30 | 19.42303 | -99.08201 | 7305 ft | 7 kts | 181° |
| 2026-04-20 02:30 | 19.42241 | -99.08205 | 7305 ft | 10 kts | 178° |
| 2026-04-20 02:30 | 19.42189 | -99.08157 | 7305 ft | 11 kts | 121° |
| 2026-04-20 02:31 | 19.42151 | -99.08088 | 7305 ft | 10 kts | 121° |
| 2026-04-20 02:31 | 19.42118 | -99.08030 | 7305 ft | 8 kts | 116° |
| 2026-04-20 02:31 | 19.42127 | -99.08000 | 7305 ft | 3 kts | 39° |
| 2026-04-20 02:31 | 19.42137 | -99.07994 | 7305 ft | 1 kts | 33° |
| 2026-04-20 02:32 | 19.42140 | -99.07991 | 7305 ft | 1 kts | 33° |
| 2026-04-20 02:32 | 19.42144 | -99.07989 | 7305 ft | 0 kts | 32° |
| 2026-04-20 02:32 | 19.42148 | -99.07986 | 7305 ft | 1 kts | 31° |
| 2026-04-20 02:32 | 19.42156 | -99.07981 | 7305 ft | 1 kts | 30° |
| 2026-04-20 02:33 | 19.42158 | -99.07980 | 7305 ft | 0 kts | 30° |
| 2026-04-20 02:35 | 19.42157 | -99.07980 | 7305 ft | 0 kts | 30° |